sensor_id;sensor_type;location;lat;lon;timestamp;P1;durP1;ratioP1;P2;durP2;ratioP2
944;SDS011;459;48.676;9.034;2023-07-28T00:00:27;2.80;;;2.60;;
944;SDS011;459;48.676;9.034;2023-07-28T00:02:52;3.20;;;2.90;;
944;SDS011;459;48.676;9.034;2023-07-28T00:05:18;3.10;;;2.80;;
944;SDS011;459;48.676;9.034;2023-07-28T00:07:43;2.50;;;2.30;;
944;SDS011;459;48.676;9.034;2023-07-28T00:10:08;3.50;;;3.20;;
944;SDS011;459;48.676;9.034;2023-07-28T00:12:34;3.73;;;2.90;;
944;SDS011;459;48.676;9.034;2023-07-28T00:14:59;3.23;;;2.40;;
944;SDS011;459;48.676;9.034;2023-07-28T00:17:25;3.40;;;2.83;;
944;SDS011;459;48.676;9.034;2023-07-28T00:19:50;3.60;;;3.20;;
944;SDS011;459;48.676;9.034;2023-07-28T00:22:15;3.77;;;3.43;;
944;SDS011;459;48.676;9.034;2023-07-28T00:24:40;3.93;;;3.53;;
944;SDS011;459;48.676;9.034;2023-07-28T00:27:05;3.43;;;3.13;;
944;SDS011;459;48.676;9.034;2023-07-28T00:29:31;3.40;;;3.10;;
944;SDS011;459;48.676;9.034;2023-07-28T00:31:56;3.17;;;2.90;;
944;SDS011;459;48.676;9.034;2023-07-28T00:34:21;3.83;;;2.87;;
944;SDS011;459;48.676;9.034;2023-07-28T00:36:46;3.90;;;2.90;;
944;SDS011;459;48.676;9.034;2023-07-28T00:39:11;2.90;;;2.70;;
944;SDS011;459;48.676;9.034;2023-07-28T00:41:36;3.20;;;3.00;;
944;SDS011;459;48.676;9.034;2023-07-28T00:44:02;3.23;;;2.93;;
944;SDS011;459;48.676;9.034;2023-07-28T00:46:27;3.37;;;3.07;;
944;SDS011;459;48.676;9.034;2023-07-28T00:48:52;3.43;;;3.13;;
944;SDS011;459;48.676;9.034;2023-07-28T00:51:17;2.87;;;2.67;;
944;SDS011;459;48.676;9.034;2023-07-28T00:53:42;4.23;;;3.03;;
944;SDS011;459;48.676;9.034;2023-07-28T00:56:08;2.97;;;2.70;;
944;SDS011;459;48.676;9.034;2023-07-28T00:58:34;4.90;;;2.93;;
944;SDS011;459;48.676;9.034;2023-07-28T01:00:59;4.23;;;3.10;;
944;SDS011;459;48.676;9.034;2023-07-28T01:03:24;3.40;;;3.10;;
944;SDS011;459;48.676;9.034;2023-07-28T01:05:54;3.90;;;3.33;;
944;SDS011;459;48.676;9.034;2023-07-28T01:08:41;3.90;;;3.50;;
944;SDS011;459;48.676;9.034;2023-07-28T01:11:07;4.00;;;3.63;;
944;SDS011;459;48.676;9.034;2023-07-28T01:13:32;3.80;;;3.50;;
944;SDS011;459;48.676;9.034;2023-07-28T01:15:58;2.90;;;2.70;;
944;SDS011;459;48.676;9.034;2023-07-28T01:18:25;3.20;;;3.00;;
944;SDS011;459;48.676;9.034;2023-07-28T01:20:51;3.33;;;3.13;;
944;SDS011;459;48.676;9.034;2023-07-28T01:23:22;3.57;;;3.27;;
944;SDS011;459;48.676;9.034;2023-07-28T01:25:54;4.20;;;3.67;;
944;SDS011;459;48.676;9.034;2023-07-28T01:28:21;3.20;;;2.90;;
944;SDS011;459;48.676;9.034;2023-07-28T01:30:46;3.13;;;2.87;;
944;SDS011;459;48.676;9.034;2023-07-28T01:33:12;3.40;;;3.10;;
944;SDS011;459;48.676;9.034;2023-07-28T01:35:37;2.90;;;2.70;;
944;SDS011;459;48.676;9.034;2023-07-28T01:38:05;3.47;;;3.03;;
944;SDS011;459;48.676;9.034;2023-07-28T01:40:31;2.67;;;2.47;;
944;SDS011;459;48.676;9.034;2023-07-28T01:42:56;4.03;;;2.90;;
944;SDS011;459;48.676;9.034;2023-07-28T01:45:21;3.50;;;3.20;;
944;SDS011;459;48.676;9.034;2023-07-28T01:47:46;3.10;;;2.70;;
944;SDS011;459;48.676;9.034;2023-07-28T01:50:11;3.60;;;3.10;;
944;SDS011;459;48.676;9.034;2023-07-28T01:52:37;3.50;;;2.60;;
944;SDS011;459;48.676;9.034;2023-07-28T01:55:02;5.23;;;3.23;;
944;SDS011;459;48.676;9.034;2023-07-28T01:57:27;5.10;;;2.93;;
944;SDS011;459;48.676;9.034;2023-07-28T01:59:53;3.80;;;3.00;;
944;SDS011;459;48.676;9.034;2023-07-28T02:02:18;3.57;;;3.13;;
944;SDS011;459;48.676;9.034;2023-07-28T02:04:43;3.30;;;2.80;;
944;SDS011;459;48.676;9.034;2023-07-28T02:07:09;2.60;;;2.40;;
944;SDS011;459;48.676;9.034;2023-07-28T02:09:34;3.33;;;3.03;;
944;SDS011;459;48.676;9.034;2023-07-28T02:11:59;3.80;;;3.20;;
944;SDS011;459;48.676;9.034;2023-07-28T02:14:24;3.73;;;3.00;;
944;SDS011;459;48.676;9.034;2023-07-28T02:16:49;2.60;;;2.40;;
944;SDS011;459;48.676;9.034;2023-07-28T02:19:14;3.00;;;2.70;;
944;SDS011;459;48.676;9.034;2023-07-28T02:21:40;2.73;;;2.53;;
944;SDS011;459;48.676;9.034;2023-07-28T02:24:05;2.87;;;2.63;;
944;SDS011;459;48.676;9.034;2023-07-28T02:26:30;4.83;;;3.40;;
944;SDS011;459;48.676;9.034;2023-07-28T02:28:55;4.07;;;3.70;;
944;SDS011;459;48.676;9.034;2023-07-28T02:31:20;2.93;;;2.63;;
944;SDS011;459;48.676;9.034;2023-07-28T02:33:46;3.57;;;3.27;;
944;SDS011;459;48.676;9.034;2023-07-28T02:36:11;3.70;;;3.40;;
944;SDS011;459;48.676;9.034;2023-07-28T02:38:36;3.30;;;3.10;;
944;SDS011;459;48.676;9.034;2023-07-28T02:41:01;6.87;;;3.00;;
944;SDS011;459;48.676;9.034;2023-07-28T02:43:28;2.80;;;2.60;;
944;SDS011;459;48.676;9.034;2023-07-28T02:45:54;3.03;;;2.83;;
944;SDS011;459;48.676;9.034;2023-07-28T02:48:19;3.07;;;2.77;;
944;SDS011;459;48.676;9.034;2023-07-28T02:50:46;2.70;;;2.50;;
944;SDS011;459;48.676;9.034;2023-07-28T02:53:15;3.10;;;2.90;;
944;SDS011;459;48.676;9.034;2023-07-28T02:55:41;3.67;;;3.37;;
944;SDS011;459;48.676;9.034;2023-07-28T02:58:06;3.30;;;2.67;;
944;SDS011;459;48.676;9.034;2023-07-28T03:00:31;4.23;;;2.67;;
944;SDS011;459;48.676;9.034;2023-07-28T03:02:56;4.00;;;3.10;;
944;SDS011;459;48.676;9.034;2023-07-28T03:05:21;3.17;;;2.87;;
944;SDS011;459;48.676;9.034;2023-07-28T03:07:47;3.00;;;2.50;;
944;SDS011;459;48.676;9.034;2023-07-28T03:10:12;2.97;;;2.77;;
944;SDS011;459;48.676;9.034;2023-07-28T03:12:41;3.00;;;2.80;;
944;SDS011;459;48.676;9.034;2023-07-28T03:15:06;3.37;;;2.97;;
944;SDS011;459;48.676;9.034;2023-07-28T03:17:32;4.17;;;3.10;;
944;SDS011;459;48.676;9.034;2023-07-28T03:19:57;4.50;;;3.63;;
944;SDS011;459;48.676;9.034;2023-07-28T03:22:22;3.27;;;2.97;;
944;SDS011;459;48.676;9.034;2023-07-28T03:24:47;3.23;;;2.93;;
944;SDS011;459;48.676;9.034;2023-07-28T03:27:12;3.10;;;2.80;;
944;SDS011;459;48.676;9.034;2023-07-28T03:29:37;3.03;;;2.73;;
944;SDS011;459;48.676;9.034;2023-07-28T03:32:03;3.40;;;3.10;;
944;SDS011;459;48.676;9.034;2023-07-28T03:34:28;3.13;;;2.83;;
944;SDS011;459;48.676;9.034;2023-07-28T03:36:53;3.50;;;3.20;;
944;SDS011;459;48.676;9.034;2023-07-28T03:39:18;3.30;;;3.00;;
944;SDS011;459;48.676;9.034;2023-07-28T03:41:44;3.00;;;2.63;;
944;SDS011;459;48.676;9.034;2023-07-28T03:44:09;3.50;;;2.97;;
944;SDS011;459;48.676;9.034;2023-07-28T03:46:34;2.90;;;2.70;;
944;SDS011;459;48.676;9.034;2023-07-28T03:48:59;3.73;;;3.13;;
944;SDS011;459;48.676;9.034;2023-07-28T03:51:25;3.27;;;2.97;;
944;SDS011;459;48.676;9.034;2023-07-28T03:53:50;3.17;;;2.73;;
944;SDS011;459;48.676;9.034;2023-07-28T03:56:15;3.13;;;2.83;;
944;SDS011;459;48.676;9.034;2023-07-28T03:58:40;3.13;;;2.83;;
944;SDS011;459;48.676;9.034;2023-07-28T04:01:05;3.00;;;2.70;;
944;SDS011;459;48.676;9.034;2023-07-28T04:03:32;3.20;;;2.90;;
944;SDS011;459;48.676;9.034;2023-07-28T04:05:57;3.60;;;2.90;;
944;SDS011;459;48.676;9.034;2023-07-28T04:08:22;3.30;;;2.87;;
944;SDS011;459;48.676;9.034;2023-07-28T04:10:48;3.03;;;2.73;;
944;SDS011;459;48.676;9.034;2023-07-28T04:13:13;3.60;;;3.17;;
944;SDS011;459;48.676;9.034;2023-07-28T04:15:38;7.23;;;3.13;;
944;SDS011;459;48.676;9.034;2023-07-28T04:18:03;4.17;;;2.90;;
944;SDS011;459;48.676;9.034;2023-07-28T04:20:28;3.10;;;2.80;;
944;SDS011;459;48.676;9.034;2023-07-28T04:22:53;3.17;;;2.80;;
944;SDS011;459;48.676;9.034;2023-07-28T04:25:19;5.63;;;2.97;;
944;SDS011;459;48.676;9.034;2023-07-28T04:27:44;5.63;;;3.80;;
944;SDS011;459;48.676;9.034;2023-07-28T04:30:09;4.40;;;4.00;;
944;SDS011;459;48.676;9.034;2023-07-28T04:32:34;4.13;;;3.67;;
944;SDS011;459;48.676;9.034;2023-07-28T04:35:00;3.43;;;3.13;;
944;SDS011;459;48.676;9.034;2023-07-28T04:37:25;3.80;;;3.30;;
944;SDS011;459;48.676;9.034;2023-07-28T04:39:50;4.17;;;3.57;;
944;SDS011;459;48.676;9.034;2023-07-28T04:42:15;5.53;;;4.67;;
944;SDS011;459;48.676;9.034;2023-07-28T04:44:40;4.60;;;3.07;;
944;SDS011;459;48.676;9.034;2023-07-28T04:47:05;4.50;;;4.10;;
944;SDS011;459;48.676;9.034;2023-07-28T04:49:31;3.73;;;3.43;;
944;SDS011;459;48.676;9.034;2023-07-28T04:51:56;3.90;;;3.50;;
944;SDS011;459;48.676;9.034;2023-07-28T04:54:21;3.63;;;3.33;;
944;SDS011;459;48.676;9.034;2023-07-28T04:56:46;4.07;;;3.50;;
944;SDS011;459;48.676;9.034;2023-07-28T04:59:14;4.50;;;3.37;;
944;SDS011;459;48.676;9.034;2023-07-28T05:01:39;4.80;;;4.40;;
944;SDS011;459;48.676;9.034;2023-07-28T05:04:05;4.67;;;4.07;;
944;SDS011;459;48.676;9.034;2023-07-28T05:06:30;4.10;;;3.80;;
944;SDS011;459;48.676;9.034;2023-07-28T05:08:55;3.80;;;3.20;;
944;SDS011;459;48.676;9.034;2023-07-28T05:11:20;4.87;;;4.40;;
944;SDS011;459;48.676;9.034;2023-07-28T05:13:45;4.97;;;3.50;;
944;SDS011;459;48.676;9.034;2023-07-28T05:16:10;4.80;;;4.40;;
944;SDS011;459;48.676;9.034;2023-07-28T05:18:36;4.17;;;3.73;;
944;SDS011;459;48.676;9.034;2023-07-28T05:21:02;5.30;;;4.30;;
944;SDS011;459;48.676;9.034;2023-07-28T05:23:27;5.20;;;4.70;;
944;SDS011;459;48.676;9.034;2023-07-28T05:25:52;6.47;;;4.07;;
944;SDS011;459;48.676;9.034;2023-07-28T05:28:17;6.43;;;4.50;;
944;SDS011;459;48.676;9.034;2023-07-28T05:30:42;8.13;;;5.13;;
944;SDS011;459;48.676;9.034;2023-07-28T05:33:07;5.00;;;4.57;;
944;SDS011;459;48.676;9.034;2023-07-28T05:35:33;4.90;;;4.50;;
944;SDS011;459;48.676;9.034;2023-07-28T05:37:58;5.80;;;4.70;;
944;SDS011;459;48.676;9.034;2023-07-28T05:40:23;5.50;;;4.93;;
944;SDS011;459;48.676;9.034;2023-07-28T05:42:48;9.40;;;6.90;;
944;SDS011;459;48.676;9.034;2023-07-28T05:45:13;5.63;;;5.13;;
944;SDS011;459;48.676;9.034;2023-07-28T05:47:39;7.03;;;6.43;;
944;SDS011;459;48.676;9.034;2023-07-28T05:50:04;6.13;;;5.00;;
944;SDS011;459;48.676;9.034;2023-07-28T05:52:30;6.90;;;5.47;;
944;SDS011;459;48.676;9.034;2023-07-28T05:54:55;5.50;;;4.90;;
944;SDS011;459;48.676;9.034;2023-07-28T05:57:21;7.93;;;5.03;;
944;SDS011;459;48.676;9.034;2023-07-28T05:59:46;5.83;;;5.20;;
944;SDS011;459;48.676;9.034;2023-07-28T06:02:11;5.87;;;5.27;;
944;SDS011;459;48.676;9.034;2023-07-28T06:04:37;10.67;;;6.47;;
944;SDS011;459;48.676;9.034;2023-07-28T06:07:02;8.17;;;6.07;;
944;SDS011;459;48.676;9.034;2023-07-28T06:09:27;8.43;;;6.33;;
944;SDS011;459;48.676;9.034;2023-07-28T06:11:53;7.90;;;5.80;;
944;SDS011;459;48.676;9.034;2023-07-28T06:14:18;6.87;;;5.50;;
944;SDS011;459;48.676;9.034;2023-07-28T06:16:43;6.27;;;5.50;;
944;SDS011;459;48.676;9.034;2023-07-28T06:19:09;8.33;;;5.60;;
944;SDS011;459;48.676;9.034;2023-07-28T06:21:34;6.63;;;5.43;;
944;SDS011;459;48.676;9.034;2023-07-28T06:23:59;7.00;;;6.30;;
944;SDS011;459;48.676;9.034;2023-07-28T06:26:25;7.17;;;6.50;;
944;SDS011;459;48.676;9.034;2023-07-28T06:28:50;7.27;;;5.70;;
944;SDS011;459;48.676;9.034;2023-07-28T06:31:15;6.83;;;6.23;;
944;SDS011;459;48.676;9.034;2023-07-28T06:33:40;7.20;;;6.50;;
944;SDS011;459;48.676;9.034;2023-07-28T06:36:05;7.70;;;5.87;;
944;SDS011;459;48.676;9.034;2023-07-28T06:38:31;6.97;;;6.27;;
944;SDS011;459;48.676;9.034;2023-07-28T06:40:57;10.43;;;6.90;;
944;SDS011;459;48.676;9.034;2023-07-28T06:43:22;7.37;;;6.67;;
944;SDS011;459;48.676;9.034;2023-07-28T06:45:50;8.20;;;6.93;;
944;SDS011;459;48.676;9.034;2023-07-28T06:48:16;11.37;;;6.63;;
944;SDS011;459;48.676;9.034;2023-07-28T06:50:41;7.40;;;6.27;;
944;SDS011;459;48.676;9.034;2023-07-28T06:53:06;8.40;;;6.67;;
944;SDS011;459;48.676;9.034;2023-07-28T06:55:31;8.83;;;7.83;;
944;SDS011;459;48.676;9.034;2023-07-28T06:57:56;7.47;;;6.77;;
944;SDS011;459;48.676;9.034;2023-07-28T07:00:22;9.07;;;7.03;;
944;SDS011;459;48.676;9.034;2023-07-28T07:02:48;7.27;;;6.20;;
944;SDS011;459;48.676;9.034;2023-07-28T07:05:13;6.77;;;6.17;;
944;SDS011;459;48.676;9.034;2023-07-28T07:07:39;10.30;;;6.70;;
944;SDS011;459;48.676;9.034;2023-07-28T07:10:04;7.77;;;5.60;;
944;SDS011;459;48.676;9.034;2023-07-28T07:12:30;6.37;;;5.37;;
944;SDS011;459;48.676;9.034;2023-07-28T07:14:55;6.80;;;6.10;;
944;SDS011;459;48.676;9.034;2023-07-28T07:17:20;5.87;;;5.27;;
944;SDS011;459;48.676;9.034;2023-07-28T07:19:46;5.80;;;5.20;;
944;SDS011;459;48.676;9.034;2023-07-28T07:22:11;9.57;;;4.10;;
944;SDS011;459;48.676;9.034;2023-07-28T07:24:36;4.10;;;3.70;;
944;SDS011;459;48.676;9.034;2023-07-28T07:27:01;3.60;;;3.30;;
944;SDS011;459;48.676;9.034;2023-07-28T07:29:26;5.93;;;4.10;;
944;SDS011;459;48.676;9.034;2023-07-28T07:31:52;4.40;;;4.00;;
944;SDS011;459;48.676;9.034;2023-07-28T07:34:21;4.60;;;3.13;;
944;SDS011;459;48.676;9.034;2023-07-28T07:36:46;3.57;;;3.27;;
944;SDS011;459;48.676;9.034;2023-07-28T07:39:11;3.13;;;2.83;;
944;SDS011;459;48.676;9.034;2023-07-28T07:41:37;4.53;;;2.87;;
944;SDS011;459;48.676;9.034;2023-07-28T07:44:02;5.60;;;3.70;;
944;SDS011;459;48.676;9.034;2023-07-28T07:46:27;4.70;;;3.50;;
944;SDS011;459;48.676;9.034;2023-07-28T07:48:52;5.00;;;3.97;;
944;SDS011;459;48.676;9.034;2023-07-28T07:51:17;4.33;;;3.90;;
944;SDS011;459;48.676;9.034;2023-07-28T07:53:43;4.47;;;4.07;;
944;SDS011;459;48.676;9.034;2023-07-28T07:56:08;4.07;;;3.55;;
944;SDS011;459;48.676;9.034;2023-07-28T07:58:34;4.93;;;3.77;;
944;SDS011;459;48.676;9.034;2023-07-28T08:01:00;3.77;;;3.30;;
944;SDS011;459;48.676;9.034;2023-07-28T08:03:25;3.47;;;3.17;;
944;SDS011;459;48.676;9.034;2023-07-28T08:05:52;4.07;;;3.20;;
944;SDS011;459;48.676;9.034;2023-07-28T08:08:17;4.00;;;3.20;;
944;SDS011;459;48.676;9.034;2023-07-28T08:10:44;4.40;;;2.63;;
944;SDS011;459;48.676;9.034;2023-07-28T08:13:09;3.53;;;3.23;;
944;SDS011;459;48.676;9.034;2023-07-28T08:15:35;2.33;;;2.13;;
944;SDS011;459;48.676;9.034;2023-07-28T08:18:00;3.53;;;2.77;;
944;SDS011;459;48.676;9.034;2023-07-28T08:20:26;2.90;;;2.60;;
944;SDS011;459;48.676;9.034;2023-07-28T08:22:51;2.67;;;2.47;;
944;SDS011;459;48.676;9.034;2023-07-28T08:25:17;3.67;;;2.80;;
944;SDS011;459;48.676;9.034;2023-07-28T08:27:42;6.70;;;3.00;;
944;SDS011;459;48.676;9.034;2023-07-28T08:30:08;3.03;;;2.37;;
944;SDS011;459;48.676;9.034;2023-07-28T08:32:33;2.83;;;2.53;;
944;SDS011;459;48.676;9.034;2023-07-28T08:34:58;3.10;;;2.73;;
944;SDS011;459;48.676;9.034;2023-07-28T08:37:24;3.00;;;2.30;;
944;SDS011;459;48.676;9.034;2023-07-28T08:39:49;2.83;;;2.30;;
944;SDS011;459;48.676;9.034;2023-07-28T08:42:14;2.70;;;2.47;;
944;SDS011;459;48.676;9.034;2023-07-28T08:44:40;3.13;;;2.83;;
944;SDS011;459;48.676;9.034;2023-07-28T08:47:06;3.20;;;2.90;;
944;SDS011;459;48.676;9.034;2023-07-28T08:49:32;3.17;;;2.73;;
944;SDS011;459;48.676;9.034;2023-07-28T08:51:58;3.10;;;2.73;;
944;SDS011;459;48.676;9.034;2023-07-28T08:54:24;3.63;;;2.50;;
944;SDS011;459;48.676;9.034;2023-07-28T08:56:49;2.67;;;2.47;;
944;SDS011;459;48.676;9.034;2023-07-28T08:59:27;2.77;;;2.47;;
944;SDS011;459;48.676;9.034;2023-07-28T09:01:54;2.37;;;2.10;;
944;SDS011;459;48.676;9.034;2023-07-28T09:04:19;2.43;;;2.17;;
944;SDS011;459;48.676;9.034;2023-07-28T09:06:45;4.07;;;2.53;;
944;SDS011;459;48.676;9.034;2023-07-28T09:09:11;3.40;;;2.33;;
944;SDS011;459;48.676;9.034;2023-07-28T09:14:11;2.70;;;2.10;;
944;SDS011;459;48.676;9.034;2023-07-28T09:16:36;2.70;;;2.13;;
944;SDS011;459;48.676;9.034;2023-07-28T09:19:05;3.23;;;2.70;;
944;SDS011;459;48.676;9.034;2023-07-28T09:21:32;3.10;;;2.40;;
944;SDS011;459;48.676;9.034;2023-07-28T09:23:59;2.50;;;2.30;;
944;SDS011;459;48.676;9.034;2023-07-28T09:26:24;2.20;;;2.00;;
944;SDS011;459;48.676;9.034;2023-07-28T09:28:49;2.70;;;2.30;;
944;SDS011;459;48.676;9.034;2023-07-28T09:31:14;3.67;;;2.90;;
944;SDS011;459;48.676;9.034;2023-07-28T09:33:39;2.60;;;1.97;;
944;SDS011;459;48.676;9.034;2023-07-28T09:36:12;1.87;;;1.70;;
944;SDS011;459;48.676;9.034;2023-07-28T09:38:38;2.20;;;1.93;;
944;SDS011;459;48.676;9.034;2023-07-28T09:41:04;2.30;;;2.07;;
944;SDS011;459;48.676;9.034;2023-07-28T09:43:34;2.50;;;2.17;;
944;SDS011;459;48.676;9.034;2023-07-28T09:46:00;1.80;;;1.60;;
944;SDS011;459;48.676;9.034;2023-07-28T09:48:25;2.63;;;2.00;;
944;SDS011;459;48.676;9.034;2023-07-28T09:50:55;2.13;;;1.77;;
944;SDS011;459;48.676;9.034;2023-07-28T09:53:21;2.03;;;1.83;;
944;SDS011;459;48.676;9.034;2023-07-28T09:55:47;2.33;;;1.90;;
944;SDS011;459;48.676;9.034;2023-07-28T09:58:15;2.33;;;1.77;;
944;SDS011;459;48.676;9.034;2023-07-28T10:00:41;1.90;;;1.63;;
944;SDS011;459;48.676;9.034;2023-07-28T10:03:07;2.37;;;2.17;;
944;SDS011;459;48.676;9.034;2023-07-28T10:05:34;2.50;;;1.80;;
944;SDS011;459;48.676;9.034;2023-07-28T10:07:59;1.60;;;1.50;;
944;SDS011;459;48.676;9.034;2023-07-28T10:10:24;2.13;;;1.90;;
944;SDS011;459;48.676;9.034;2023-07-28T10:12:53;2.37;;;2.13;;
944;SDS011;459;48.676;9.034;2023-07-28T10:15:20;2.27;;;2.07;;
944;SDS011;459;48.676;9.034;2023-07-28T10:17:46;2.63;;;2.10;;
944;SDS011;459;48.676;9.034;2023-07-28T10:20:31;2.23;;;1.97;;
944;SDS011;459;48.676;9.034;2023-07-28T10:23:03;2.57;;;2.23;;
944;SDS011;459;48.676;9.034;2023-07-28T10:25:28;1.80;;;1.57;;
944;SDS011;459;48.676;9.034;2023-07-28T10:27:57;2.40;;;2.10;;
944;SDS011;459;48.676;9.034;2023-07-28T10:30:22;2.47;;;1.97;;
944;SDS011;459;48.676;9.034;2023-07-28T10:32:50;2.97;;;2.30;;
944;SDS011;459;48.676;9.034;2023-07-28T10:37:46;2.40;;;2.20;;
944;SDS011;459;48.676;9.034;2023-07-28T10:42:56;2.37;;;2.13;;
944;SDS011;459;48.676;9.034;2023-07-28T10:45:22;3.20;;;2.10;;
944;SDS011;459;48.676;9.034;2023-07-28T10:47:48;2.17;;;1.93;;
944;SDS011;459;48.676;9.034;2023-07-28T10:50:13;2.33;;;2.13;;
944;SDS011;459;48.676;9.034;2023-07-28T10:52:41;2.60;;;2.00;;
944;SDS011;459;48.676;9.034;2023-07-28T10:55:16;3.00;;;2.30;;
944;SDS011;459;48.676;9.034;2023-07-28T10:57:42;1.97;;;1.77;;
944;SDS011;459;48.676;9.034;2023-07-28T11:00:08;3.30;;;2.77;;
944;SDS011;459;48.676;9.034;2023-07-28T11:02:36;2.80;;;2.43;;
944;SDS011;459;48.676;9.034;2023-07-28T11:05:05;2.83;;;2.40;;
944;SDS011;459;48.676;9.034;2023-07-28T11:07:31;2.40;;;2.20;;
944;SDS011;459;48.676;9.034;2023-07-28T11:09:56;2.10;;;1.90;;
944;SDS011;459;48.676;9.034;2023-07-28T11:12:22;2.47;;;2.27;;
944;SDS011;459;48.676;9.034;2023-07-28T11:14:48;2.53;;;2.30;;
944;SDS011;459;48.676;9.034;2023-07-28T11:17:14;2.63;;;2.43;;
944;SDS011;459;48.676;9.034;2023-07-28T11:19:39;2.60;;;2.27;;
944;SDS011;459;48.676;9.034;2023-07-28T11:22:04;2.50;;;1.97;;
944;SDS011;459;48.676;9.034;2023-07-28T11:24:30;2.73;;;2.33;;
944;SDS011;459;48.676;9.034;2023-07-28T11:26:57;4.30;;;2.53;;
944;SDS011;459;48.676;9.034;2023-07-28T11:29:23;3.03;;;2.70;;
944;SDS011;459;48.676;9.034;2023-07-28T11:31:48;3.30;;;3.00;;
944;SDS011;459;48.676;9.034;2023-07-28T11:34:17;2.67;;;2.47;;
944;SDS011;459;48.676;9.034;2023-07-28T11:36:43;2.90;;;2.60;;
944;SDS011;459;48.676;9.034;2023-07-28T11:39:08;3.10;;;2.67;;
944;SDS011;459;48.676;9.034;2023-07-28T11:41:35;4.03;;;2.53;;
944;SDS011;459;48.676;9.034;2023-07-28T11:44:01;3.90;;;3.10;;
944;SDS011;459;48.676;9.034;2023-07-28T11:46:36;3.20;;;2.90;;
944;SDS011;459;48.676;9.034;2023-07-28T11:49:14;3.93;;;2.73;;
944;SDS011;459;48.676;9.034;2023-07-28T11:51:40;2.90;;;2.50;;
944;SDS011;459;48.676;9.034;2023-07-28T11:54:08;3.50;;;3.20;;
944;SDS011;459;48.676;9.034;2023-07-28T11:56:35;4.07;;;3.60;;
944;SDS011;459;48.676;9.034;2023-07-28T11:59:00;3.67;;;3.30;;
944;SDS011;459;48.676;9.034;2023-07-28T12:01:28;3.20;;;2.90;;
944;SDS011;459;48.676;9.034;2023-07-28T12:03:53;3.87;;;3.13;;
944;SDS011;459;48.676;9.034;2023-07-28T12:06:18;3.47;;;3.17;;
944;SDS011;459;48.676;9.034;2023-07-28T12:08:43;3.87;;;3.47;;
944;SDS011;459;48.676;9.034;2023-07-28T12:11:13;3.40;;;2.90;;
944;SDS011;459;48.676;9.034;2023-07-28T12:13:48;4.10;;;2.80;;
944;SDS011;459;48.676;9.034;2023-07-28T12:18:58;3.50;;;3.13;;
944;SDS011;459;48.676;9.034;2023-07-28T12:21:23;3.37;;;2.87;;
944;SDS011;459;48.676;9.034;2023-07-28T12:23:48;4.03;;;3.10;;
944;SDS011;459;48.676;9.034;2023-07-28T12:26:14;3.70;;;3.40;;
944;SDS011;459;48.676;9.034;2023-07-28T12:28:39;3.30;;;3.00;;
944;SDS011;459;48.676;9.034;2023-07-28T12:31:04;3.30;;;3.00;;
944;SDS011;459;48.676;9.034;2023-07-28T12:33:29;3.90;;;3.10;;
944;SDS011;459;48.676;9.034;2023-07-28T12:35:54;3.40;;;2.90;;
944;SDS011;459;48.676;9.034;2023-07-28T12:38:20;4.00;;;3.60;;
944;SDS011;459;48.676;9.034;2023-07-28T12:40:45;3.40;;;3.10;;
944;SDS011;459;48.676;9.034;2023-07-28T12:43:11;3.60;;;3.30;;
944;SDS011;459;48.676;9.034;2023-07-28T12:45:36;3.30;;;3.00;;
944;SDS011;459;48.676;9.034;2023-07-28T12:48:01;3.53;;;2.97;;
944;SDS011;459;48.676;9.034;2023-07-28T12:50:26;4.07;;;3.67;;
944;SDS011;459;48.676;9.034;2023-07-28T12:52:52;3.03;;;2.83;;
944;SDS011;459;48.676;9.034;2023-07-28T12:55:17;3.77;;;3.37;;
944;SDS011;459;48.676;9.034;2023-07-28T12:57:43;3.93;;;2.80;;
944;SDS011;459;48.676;9.034;2023-07-28T13:00:09;4.07;;;3.17;;
944;SDS011;459;48.676;9.034;2023-07-28T13:02:44;4.03;;;3.63;;
944;SDS011;459;48.676;9.034;2023-07-28T13:05:09;3.23;;;3.00;;
944;SDS011;459;48.676;9.034;2023-07-28T13:07:35;4.53;;;3.47;;
944;SDS011;459;48.676;9.034;2023-07-28T13:10:01;5.30;;;3.77;;
944;SDS011;459;48.676;9.034;2023-07-28T13:12:26;4.17;;;3.87;;
944;SDS011;459;48.676;9.034;2023-07-28T13:14:51;4.60;;;3.73;;
944;SDS011;459;48.676;9.034;2023-07-28T13:17:16;6.17;;;4.37;;
944;SDS011;459;48.676;9.034;2023-07-28T13:19:41;4.60;;;4.20;;
944;SDS011;459;48.676;9.034;2023-07-28T13:22:07;4.50;;;4.10;;
944;SDS011;459;48.676;9.034;2023-07-28T13:24:32;3.57;;;3.27;;
944;SDS011;459;48.676;9.034;2023-07-28T13:26:57;6.27;;;4.43;;
944;SDS011;459;48.676;9.034;2023-07-28T13:29:22;4.23;;;3.37;;
944;SDS011;459;48.676;9.034;2023-07-28T13:31:47;5.70;;;4.60;;
944;SDS011;459;48.676;9.034;2023-07-28T13:34:12;6.57;;;4.40;;
944;SDS011;459;48.676;9.034;2023-07-28T13:36:37;4.07;;;3.67;;
944;SDS011;459;48.676;9.034;2023-07-28T13:39:03;4.47;;;4.07;;
944;SDS011;459;48.676;9.034;2023-07-28T13:41:28;5.33;;;4.93;;
944;SDS011;459;48.676;9.034;2023-07-28T13:43:53;5.63;;;5.13;;
944;SDS011;459;48.676;9.034;2023-07-28T13:46:18;4.57;;;3.97;;
944;SDS011;459;48.676;9.034;2023-07-28T13:48:44;6.37;;;5.77;;
944;SDS011;459;48.676;9.034;2023-07-28T13:51:09;7.50;;;6.80;;
944;SDS011;459;48.676;9.034;2023-07-28T13:53:34;8.17;;;7.33;;
944;SDS011;459;48.676;9.034;2023-07-28T13:55:59;14.53;;;6.87;;
944;SDS011;459;48.676;9.034;2023-07-28T13:58:25;6.60;;;6.00;;
944;SDS011;459;48.676;9.034;2023-07-28T14:00:50;8.07;;;5.70;;
944;SDS011;459;48.676;9.034;2023-07-28T14:03:15;6.83;;;6.20;;
944;SDS011;459;48.676;9.034;2023-07-28T14:05:41;6.37;;;5.77;;
944;SDS011;459;48.676;9.034;2023-07-28T14:08:06;6.63;;;6.03;;
944;SDS011;459;48.676;9.034;2023-07-28T14:10:31;7.80;;;6.33;;
944;SDS011;459;48.676;9.034;2023-07-28T14:12:59;7.70;;;6.87;;
944;SDS011;459;48.676;9.034;2023-07-28T14:15:25;5.70;;;5.10;;
944;SDS011;459;48.676;9.034;2023-07-28T14:17:50;6.83;;;5.50;;
944;SDS011;459;48.676;9.034;2023-07-28T14:20:15;7.53;;;6.33;;
944;SDS011;459;48.676;9.034;2023-07-28T14:22:40;7.17;;;6.47;;
944;SDS011;459;48.676;9.034;2023-07-28T14:25:05;7.23;;;6.53;;
944;SDS011;459;48.676;9.034;2023-07-28T14:27:31;5.87;;;5.27;;
944;SDS011;459;48.676;9.034;2023-07-28T14:29:56;6.33;;;5.70;;
944;SDS011;459;48.676;9.034;2023-07-28T14:32:21;5.33;;;4.80;;
944;SDS011;459;48.676;9.034;2023-07-28T14:34:46;6.53;;;5.83;;
944;SDS011;459;48.676;9.034;2023-07-28T14:37:12;7.63;;;6.70;;
944;SDS011;459;48.676;9.034;2023-07-28T14:39:37;6.40;;;5.37;;
944;SDS011;459;48.676;9.034;2023-07-28T14:42:02;7.80;;;6.13;;
944;SDS011;459;48.676;9.034;2023-07-28T14:44:28;6.70;;;6.03;;
944;SDS011;459;48.676;9.034;2023-07-28T14:46:53;5.77;;;5.20;;
944;SDS011;459;48.676;9.034;2023-07-28T14:49:18;5.73;;;5.03;;
944;SDS011;459;48.676;9.034;2023-07-28T14:51:43;4.97;;;4.57;;
944;SDS011;459;48.676;9.034;2023-07-28T14:54:08;5.50;;;4.90;;
944;SDS011;459;48.676;9.034;2023-07-28T14:56:34;4.63;;;4.10;;
944;SDS011;459;48.676;9.034;2023-07-28T14:58:59;5.10;;;4.60;;
944;SDS011;459;48.676;9.034;2023-07-28T15:01:28;4.40;;;4.00;;
944;SDS011;459;48.676;9.034;2023-07-28T15:03:53;5.27;;;4.60;;
944;SDS011;459;48.676;9.034;2023-07-28T15:06:18;4.77;;;4.10;;
944;SDS011;459;48.676;9.034;2023-07-28T15:08:44;3.80;;;3.50;;
944;SDS011;459;48.676;9.034;2023-07-28T15:11:09;5.83;;;4.70;;
944;SDS011;459;48.676;9.034;2023-07-28T15:13:34;5.60;;;5.10;;
944;SDS011;459;48.676;9.034;2023-07-28T15:15:59;5.50;;;5.00;;
944;SDS011;459;48.676;9.034;2023-07-28T15:18:24;5.30;;;4.80;;
944;SDS011;459;48.676;9.034;2023-07-28T15:20:50;6.80;;;5.23;;
944;SDS011;459;48.676;9.034;2023-07-28T15:23:15;5.10;;;4.60;;
944;SDS011;459;48.676;9.034;2023-07-28T15:25:40;6.13;;;5.30;;
944;SDS011;459;48.676;9.034;2023-07-28T15:28:09;5.00;;;4.50;;
944;SDS011;459;48.676;9.034;2023-07-28T15:30:34;5.57;;;4.73;;
944;SDS011;459;48.676;9.034;2023-07-28T15:32:59;6.67;;;5.97;;
944;SDS011;459;48.676;9.034;2023-07-28T15:35:24;6.57;;;5.70;;
944;SDS011;459;48.676;9.034;2023-07-28T15:37:49;5.80;;;5.20;;
944;SDS011;459;48.676;9.034;2023-07-28T15:40:15;5.43;;;4.87;;
944;SDS011;459;48.676;9.034;2023-07-28T15:42:40;5.40;;;5.00;;
944;SDS011;459;48.676;9.034;2023-07-28T15:45:05;5.70;;;5.20;;